createdAt,value
2022-11-13T05:32:44.528Z,20.95
2022-11-13T05:35:31.840Z,27.45
2022-11-13T05:38:18.340Z,17.13
2022-11-13T05:41:06.553Z,17.02
2022-11-13T05:43:59.197Z,19.13
2022-11-13T05:46:46.747Z,16.63
2022-11-13T05:49:33.423Z,15.00
2022-11-13T05:52:19.980Z,19.33
2022-11-13T05:55:07.538Z,23.73
2022-11-13T05:57:54.106Z,27.70
2022-11-13T06:00:40.478Z,15.35
2022-11-13T06:03:26.971Z,15.00
2022-11-13T06:06:17.874Z,15.80
2022-11-13T06:09:10.534Z,16.30
2022-11-13T06:11:57.200Z,16.42
2022-11-13T06:14:43.929Z,14.35
2022-11-13T06:17:30.610Z,15.82
2022-11-13T06:20:17.259Z,17.23
2022-11-13T06:23:04.083Z,14.98
2022-11-13T06:25:50.861Z,14.00
2022-11-13T06:28:37.631Z,14.07
2022-11-13T06:31:31.223Z,12.93
2022-11-13T06:34:17.415Z,10.63
2022-11-13T06:37:03.908Z,11.88
2022-11-13T06:39:50.641Z,10.85
2022-11-13T06:42:36.971Z,11.70
2022-11-13T06:45:23.446Z,12.50
2022-11-13T06:48:11.289Z,11.60
2022-11-13T06:51:06.837Z,12.15
2022-11-13T06:53:53.945Z,12.43
2022-11-13T06:56:45.343Z,12.80
2022-11-13T06:59:32.317Z,11.77
2022-11-13T07:02:18.688Z,13.85
2022-11-13T07:05:05.440Z,13.35
2022-11-13T07:07:52.700Z,14.77
2022-11-13T07:10:40.164Z,11.40
2022-11-13T07:13:28.465Z,16.73
2022-11-13T07:16:17.965Z,10.02
2022-11-13T07:19:05.649Z,10.98
2022-11-13T07:21:52.181Z,8.45
2022-11-13T07:24:38.811Z,11.73
2022-11-13T07:27:25.309Z,7.05
2022-11-13T07:30:12.444Z,12.27
2022-11-13T07:33:03.598Z,17.23
2022-11-13T07:35:49.958Z,10.83
2022-11-13T07:38:37.343Z,14.27
2022-11-13T07:41:26.134Z,8.35
2022-11-13T07:44:21.951Z,9.93
2022-11-13T07:47:18.750Z,12.15
2022-11-13T07:50:10.728Z,8.95
2022-11-13T07:53:00.486Z,10.98
2022-11-13T07:55:47.921Z,9.75
2022-11-13T07:58:34.743Z,12.73
2022-11-13T08:01:21.709Z,10.18
2022-11-13T08:04:08.640Z,10.60
2022-11-13T08:06:55.369Z,9.10
2022-11-13T08:09:41.642Z,11.68
2022-11-13T08:12:28.214Z,9.10
2022-11-13T08:15:15.430Z,10.30
2022-11-13T08:18:04.653Z,8.43
2022-11-13T08:20:51.253Z,9.40
2022-11-13T08:23:37.655Z,8.68
2022-11-13T08:26:23.831Z,6.28
2022-11-13T08:29:10.030Z,6.82
2022-11-13T08:31:56.371Z,6.38
2022-11-13T08:34:42.656Z,8.02
2022-11-13T08:37:29.992Z,8.30
2022-11-13T08:40:16.368Z,7.18
2022-11-13T08:43:04.689Z,8.00
2022-11-13T08:45:51.750Z,10.57
2022-11-13T08:48:38.327Z,7.65
2022-11-13T08:51:25.441Z,8.98
2022-11-13T08:54:12.835Z,11.02
2022-11-13T08:57:04.720Z,8.90
2022-11-13T08:59:52.747Z,9.88
2022-11-13T09:02:39.060Z,7.50
2022-11-13T09:05:26.135Z,8.35
2022-11-13T09:08:12.698Z,9.02
2022-11-13T09:11:06.363Z,8.80
2022-11-13T09:13:53.895Z,7.65
2022-11-13T09:16:40.815Z,8.18
2022-11-13T09:19:27.832Z,10.98
2022-11-13T09:22:14.290Z,8.02
2022-11-13T09:25:01.176Z,7.25
2022-11-13T09:27:58.319Z,7.32
2022-11-13T09:30:45.085Z,5.88
2022-11-13T09:33:31.709Z,7.90
2022-11-13T09:36:18.253Z,6.25
2022-11-13T09:39:05.734Z,6.82
2022-11-13T09:42:19.213Z,7.95
2022-11-13T09:45:14.944Z,7.35
2022-11-13T09:48:33.638Z,8.60
2022-11-13T09:51:33.214Z,6.57
2022-11-13T09:54:20.556Z,6.57
2022-11-13T09:57:15.714Z,6.82
2022-11-13T10:00:19.922Z,8.23
2022-11-13T10:03:33.440Z,6.68
2022-11-13T10:07:03.901Z,6.40
2022-11-13T10:10:18.147Z,6.60
2022-11-13T10:13:06.234Z,7.05
2022-11-13T10:16:06.930Z,5.38
2022-11-13T10:19:00.902Z,6.53
2022-11-13T10:22:34.558Z,5.82
2022-11-13T10:25:25.847Z,6.78
2022-11-13T10:28:49.950Z,7.75
2022-11-13T10:31:59.780Z,6.38
2022-11-13T10:34:57.263Z,6.00
2022-11-13T10:38:09.372Z,6.72
2022-11-13T10:41:20.313Z,5.82
2022-11-13T10:44:34.540Z,6.20
2022-11-13T10:47:57.314Z,9.55
2022-11-13T10:50:36.994Z,6.65
2022-11-13T10:53:27.575Z,7.50
2022-11-13T10:56:26.797Z,7.57
2022-11-13T10:59:13.782Z,7.05
2022-11-13T11:02:15.646Z,7.57
2022-11-13T11:05:16.475Z,9.73
2022-11-13T11:08:10.987Z,8.32
2022-11-13T11:11:32.877Z,8.38
2022-11-13T11:15:04.971Z,7.90
2022-11-13T11:18:00.456Z,8.38
2022-11-13T11:20:58.774Z,7.25
2022-11-13T11:24:06.742Z,8.07
2022-11-13T11:27:00.971Z,9.70
2022-11-13T11:30:05.137Z,9.45
2022-11-13T11:33:20.857Z,10.45
2022-11-13T11:36:33.076Z,10.90
2022-11-13T11:39:42.942Z,8.43
2022-11-13T11:42:56.506Z,7.43
2022-11-13T11:45:46.445Z,6.82
2022-11-13T11:48:34.789Z,6.90
2022-11-13T11:51:48.359Z,7.95
2022-11-13T11:55:29.897Z,9.68
2022-11-13T11:58:22.532Z,9.70
2022-11-13T12:01:42.933Z,8.15
2022-11-13T12:04:48.040Z,8.18
2022-11-13T12:07:40.673Z,7.05
2022-11-13T12:11:11.561Z,7.68
2022-11-13T12:14:16.233Z,10.52
2022-11-13T12:17:41.982Z,8.23
2022-11-13T12:21:02.177Z,6.45
2022-11-13T12:24:03.987Z,8.18
2022-11-13T12:27:20.355Z,9.00
2022-11-13T12:30:20.079Z,6.95
2022-11-13T12:33:21.090Z,6.15
2022-11-13T12:36:12.492Z,8.50
2022-11-13T12:39:20.748Z,7.32
2022-11-13T12:42:34.488Z,7.72
2022-11-13T12:45:38.995Z,7.30
2022-11-13T12:48:42.138Z,7.57
2022-11-13T12:51:40.465Z,7.90
2022-11-13T12:54:37.117Z,8.80
2022-11-13T12:57:30.338Z,11.00
2022-11-13T13:00:30.493Z,8.43
2022-11-13T13:03:59.163Z,8.35
2022-11-13T13:07:01.915Z,10.20
2022-11-13T13:11:11.168Z,7.35
2022-11-13T13:14:26.240Z,8.70
2022-11-13T13:17:15.608Z,8.48
2022-11-13T13:20:04.416Z,9.73
2022-11-13T13:23:00.387Z,10.10
2022-11-13T13:25:47.924Z,9.63
2022-11-13T13:28:38.951Z,9.02
2022-11-13T13:32:12.313Z,10.50
2022-11-13T13:35:13.851Z,8.90
2022-11-13T13:38:35.751Z,11.90
2022-11-13T13:41:47.302Z,9.25
2022-11-13T13:45:11.464Z,11.63
2022-11-13T13:47:59.607Z,8.85
2022-11-13T13:50:50.190Z,11.35
2022-11-13T13:53:37.210Z,10.65
2022-11-13T13:56:26.207Z,9.63
2022-11-13T13:59:27.342Z,10.35
2022-11-13T14:02:22.323Z,9.57
2022-11-13T14:05:24.663Z,9.48
2022-11-13T14:11:19.375Z,12.05
2022-11-13T14:14:21.084Z,11.15
2022-11-13T14:17:12.087Z,13.88
2022-11-13T14:20:02.316Z,13.55
2022-11-13T14:22:56.276Z,13.63
2022-11-13T14:25:44.910Z,12.30
2022-11-13T14:28:47.748Z,10.45
2022-11-13T14:31:37.598Z,14.35
2022-11-13T14:34:24.848Z,17.45
2022-11-13T14:37:36.588Z,15.52
2022-11-13T14:43:32.493Z,11.68
2022-11-13T14:46:44.551Z,14.38
2022-11-13T14:52:29.017Z,17.23
2022-11-13T14:55:27.495Z,18.88
2022-11-13T14:58:15.395Z,20.67
2022-11-13T15:01:21.490Z,16.80
2022-11-13T15:04:08.217Z,15.20
2022-11-13T15:07:02.366Z,19.63
2022-11-13T15:09:50.924Z,19.45
2022-11-13T15:12:39.333Z,20.60
2022-11-13T15:15:30.545Z,24.25
2022-11-13T15:18:20.079Z,20.75
2022-11-13T15:21:07.182Z,22.92
2022-11-13T15:23:53.712Z,20.70
2022-11-13T15:26:41.959Z,24.90
2022-11-13T15:29:29.081Z,21.15
2022-11-13T15:32:16.220Z,22.55
2022-11-13T15:35:06.537Z,20.33
2022-11-13T15:37:58.772Z,20.30
2022-11-13T15:40:51.957Z,19.83
2022-11-13T15:43:38.783Z,21.15
2022-11-13T15:46:27.004Z,22.23
2022-11-13T15:49:21.117Z,22.70
2022-11-13T15:52:10.496Z,23.20
2022-11-13T15:54:59.912Z,21.27
2022-11-13T15:57:47.880Z,19.95
2022-11-13T16:00:43.673Z,21.67
2022-11-13T16:03:34.892Z,20.17
2022-11-13T16:06:26.629Z,19.17
2022-11-13T16:09:15.620Z,20.42
2022-11-13T16:12:02.182Z,19.45
2022-11-13T16:14:49.252Z,20.35
2022-11-13T16:17:42.464Z,18.85
2022-11-13T16:20:29.767Z,19.05
2022-11-13T16:23:18.084Z,20.25
2022-11-13T16:26:05.922Z,20.92
2022-11-13T16:29:13.925Z,23.23
2022-11-13T16:32:00.873Z,20.40
2022-11-13T16:53:19.624Z,21.33
2022-11-13T16:56:20.190Z,18.58
2022-11-13T16:59:06.997Z,18.90
2022-11-13T17:01:57.691Z,17.10
2022-11-13T17:04:45.228Z,18.73
2022-11-13T17:07:32.462Z,18.55
2022-11-13T17:10:36.573Z,20.00
2022-11-13T17:13:23.819Z,18.67
2022-11-13T17:16:13.611Z,19.38
2022-11-13T17:19:01.105Z,30.05
2022-11-13T17:21:48.067Z,52.20
2022-11-13T17:24:35.371Z,88.40
2022-11-13T17:27:21.927Z,56.67
2022-11-13T17:30:11.090Z,53.08
2022-11-13T17:32:57.792Z,52.60
2022-11-13T17:35:46.635Z,53.97
2022-11-13T17:38:33.883Z,55.38
2022-11-13T17:41:20.571Z,48.25
2022-11-13T17:44:07.450Z,33.83
2022-11-13T17:46:54.808Z,25.45
2022-11-13T17:49:42.670Z,23.20
2022-11-13T17:52:30.381Z,20.42
2022-11-13T17:55:17.704Z,26.45
2022-11-13T17:58:04.712Z,21.33
2022-11-13T18:00:52.192Z,21.55
2022-11-13T18:03:40.238Z,23.13
2022-11-13T18:06:27.711Z,19.38
2022-11-13T18:09:14.329Z,21.67
2022-11-13T18:12:01.492Z,19.88
2022-11-13T18:14:52.620Z,21.23
2022-11-13T18:17:39.295Z,23.05
2022-11-13T18:20:27.862Z,19.65
2022-11-13T18:23:16.115Z,21.85
2022-11-13T18:26:16.434Z,25.40
2022-11-13T18:29:04.348Z,26.77
2022-11-13T18:31:51.778Z,24.85
2022-11-13T18:34:38.973Z,19.88
2022-11-13T18:37:25.635Z,18.50
2022-11-13T18:40:13.050Z,20.38
2022-11-13T18:43:00.243Z,20.00
2022-11-13T18:46:01.038Z,15.60
2022-11-13T18:48:50.536Z,13.65
2022-11-13T18:51:38.439Z,23.00
2022-11-13T18:54:25.070Z,21.48
2022-11-13T18:57:12.297Z,29.17
2022-11-13T19:00:00.852Z,17.52
2022-11-13T19:02:52.597Z,14.75
2022-11-13T19:05:48.164Z,16.90
2022-11-13T19:08:40.579Z,20.88
2022-11-13T19:11:29.474Z,38.85
2022-11-13T19:14:19.189Z,19.98
2022-11-13T19:17:09.312Z,15.40
2022-11-13T19:19:58.097Z,18.80
2022-11-13T19:22:45.569Z,19.23
2022-11-13T19:25:32.885Z,23.70
2022-11-13T19:28:19.732Z,41.70
2022-11-13T19:31:09.876Z,22.90
2022-11-13T19:34:07.877Z,20.38
2022-11-13T19:36:55.379Z,35.95
2022-11-13T19:39:43.291Z,37.53
2022-11-13T19:42:31.395Z,15.35
2022-11-13T19:45:19.243Z,34.85
2022-11-13T19:48:06.992Z,30.17
2022-11-13T19:50:54.725Z,36.30
2022-11-13T19:53:51.370Z,44.72
2022-11-13T19:56:38.323Z,26.45
2022-11-13T19:59:28.861Z,34.20
2022-11-13T20:02:15.384Z,45.05
2022-11-13T20:05:03.503Z,36.53
2022-11-13T20:07:51.208Z,15.43
2022-11-13T20:10:38.884Z,16.80
2022-11-13T20:13:27.056Z,18.67
2022-11-13T20:16:16.576Z,21.73
2022-11-13T20:19:03.777Z,19.17
